Immingham, United Kingdom
Current Conditions -  °F | °C
As of 6:20 PM on Saturday 20 Dec 2014 (Local Time) from EGNJ Reporting Station
Few Clouds Few Clouds  
Wind Chill: 39°   Ceiling: Unl
Heat Index: 45°   Visibility: 6mi
Dew Point: 41°   Wind: 12mph
Humidity: 87%   Direction: 240°WSW
Pressure: 30.27"   Gusts: NA
Location:  53.61°N, 0.22°W
Report Text: EGNJ 201820Z 24010KT 9999 FEW030 07/05 Q1025
Loading
Personal Weather Stations






























Interactive Weather Map New forecast layout! Learn more

10-Day Weather Forecast

Advertisements
Track Severe Weather on mobile